Time;durP1;ratioP1;P1;durP2;ratioP2;P2;SDS_P1;SDS_P2;PMS_P1;PMS_P2;Temp;Humidity;BMP_temperature;BMP_pressure;BME280_temperature;BME280_humidity;BME280_pressure;Samples;Min_cycle;Max_cycle;Signal;HPM_P1;HPM_P2
2022/08/12 00:43:09;;;;;;;6.27;2.90;;;;;;;21.34;45.49;101803.84;5295132;28;20040;-76
2022/08/12 00:48:31;;;;;;;6.27;3.10;;;;;;;21.62;44.59;101817.31;5294793;28;20028;-76
2022/08/12 00:51:04;;;;;;;10.47;3.23;;;;;;;21.38;45.19;101802.59;5293080;28;20640;-76
2022/08/12 00:53:36;;;;;;;6.23;3.03;;;;;;;21.43;45.13;101810.16;5294237;28;20032;-76
2022/08/12 00:56:09;;;;;;;3.93;2.73;;;;;;;21.26;45.73;101808.06;5293743;28;20035;-76
2022/08/12 00:58:46;;;;;;;7.07;3.20;;;;;;;21.24;45.18;101810.00;5294715;28;20464;-76
2022/08/12 01:01:19;;;;;;;6.20;2.77;;;;;;;21.21;44.85;101804.97;5292140;28;20020;-76
2022/08/12 01:11:27;;;;;;;10.10;3.00;;;;;;;21.15;45.51;101805.53;5294617;28;20073;-76
2022/08/12 01:12:24;;;;;;;7.33;3.10;;;;;;;21.14;45.46;101803.84;5283091;23;20517;-76
2022/08/12 01:14:56;;;;;;;6.80;3.03;;;;;;;21.13;45.46;101802.16;5230554;28;20118;-77
2022/08/12 01:17:28;;;;;;;11.20;2.70;;;;;;;21.10;45.41;101803.28;5231451;28;20096;-76
2022/08/12 01:20:05;;;;;;;8.13;3.13;;;;;;;21.05;45.49;101807.34;5231825;28;20131;-76
2022/08/12 01:22:58;;;;;;;9.00;3.33;;;;;;;21.16;45.50;101801.88;5231042;28;20581;-76
2022/08/12 01:25:36;;;;;;;8.27;3.10;;;;;;;20.96;46.34;101796.56;5230406;28;20065;-76
2022/08/12 01:28:12;;;;;;;9.10;2.93;;;;;;;21.02;46.34;101803.97;5231954;28;20033;-76
2022/08/12 01:30:43;;;;;;;6.23;2.90;;;;;;;21.03;45.79;101804.81;5230515;28;20051;-74
2022/08/12 01:33:17;;;;;;;7.30;2.90;;;;;;;20.85;47.10;101815.25;5231325;28;20033;-75
2022/08/12 01:35:54;;;;;;;5.97;2.75;;;;;;;20.88;46.78;101810.50;5231294;28;20022;-75
2022/08/12 01:38:25;;;;;;;8.17;3.03;;;;;;;20.62;47.62;101796.84;5230765;28;20436;-75
2022/08/12 01:40:59;;;;;;;5.20;2.70;;;;;;;20.84;46.60;101810.94;5230047;28;20025;-75
2022/08/12 01:43:33;;;;;;;5.50;2.80;;;;;;;20.67;47.14;101815.91;5231042;28;20021;-76
2022/08/12 01:46:13;;;;;;;10.93;3.85;;;;;;;20.65;47.42;101813.38;5229220;28;20033;-76
2022/08/12 01:48:58;;;;;;;4.60;2.83;;;;;;;20.68;46.96;101810.44;5230949;28;20076;-75
2022/08/12 01:51:42;;;;;;;6.73;2.63;;;;;;;20.64;47.17;101801.06;5230731;28;20482;-75
2022/08/12 01:54:18;;;;;;;7.00;2.60;;;;;;;20.55;48.29;101810.69;5229324;28;20024;-75
2022/08/12 01:56:54;;;;;;;7.50;3.10;;;;;;;20.42;48.37;101810.09;5231437;28;20029;-75
2022/08/12 02:02:27;;;;;;;5.60;2.73;;;;;;;20.43;48.40;101799.31;5230327;28;20421;-75
2022/08/12 02:12:20;;;;;;;6.37;3.33;;;;;;;20.45;48.10;101801.00;5186399;28;20030;-75
2022/08/12 02:15:20;;;;;;;4.87;3.00;;;;;;;20.30;48.49;101794.22;5245633;28;20057;-75
2022/08/12 02:18:07;;;;;;;5.20;3.30;;;;;;;20.24;48.62;101788.59;5230429;28;20113;-75
2022/08/12 02:20:57;;;;;;;8.23;3.23;;;;;;;20.28;49.06;101801.47;5230191;28;20026;-76
2022/08/12 02:23:30;;;;;;;7.83;3.37;;;;;;;19.89;49.98;101791.47;5230601;28;20480;-76
2022/08/12 02:26:07;;;;;;;4.60;3.50;;;;;;;20.01;49.99;101794.03;5229187;28;20044;-75
2022/08/12 02:28:39;;;;;;;7.43;3.67;;;;;;;19.79;49.73;101777.28;5230407;28;20036;-76
2022/08/12 02:31:11;;;;;;;10.07;3.17;;;;;;;19.96;50.10;101789.13;5229031;28;20437;-75
2022/08/12 02:33:45;;;;;;;7.43;3.90;;;;;;;19.82;49.99;101785.81;5230513;28;20096;-75
2022/08/12 02:36:17;;;;;;;5.05;3.42;;;;;;;19.92;50.04;101785.88;5230014;28;20022;-76
2022/08/12 02:38:49;;;;;;;7.57;3.43;;;;;;;19.79;50.09;101782.59;5230338;28;20508;-75
2022/08/12 02:41:25;;;;;;;12.60;3.70;;;;;;;19.77;50.33;101780.06;5228870;28;20068;-75
2022/08/12 02:44:06;;;;;;;7.73;3.93;;;;;;;19.98;50.09;101783.66;5230549;28;20048;-75
2022/08/12 02:46:39;;;;;;;6.63;3.43;;;;;;;19.68;51.21;101772.84;5230072;28;20071;-75
2022/08/12 02:49:24;;;;;;;8.43;3.30;;;;;;;19.81;50.09;101773.50;5230066;28;20036;-76
2022/08/12 02:51:58;;;;;;;7.37;3.70;;;;;;;19.67;51.14;101787.13;5228733;28;20030;-75
2022/08/12 02:54:30;;;;;;;5.97;3.43;;;;;;;19.59;51.25;101785.94;5229006;28;20075;-75
2022/08/12 02:57:01;;;;;;;6.43;4.13;;;;;;;19.55;51.64;101788.97;5230227;28;20274;-76
2022/08/12 02:59:34;;;;;;;11.07;3.53;;;;;;;19.63;51.53;101785.69;5233104;28;20104;-76
2022/08/12 03:02:10;;;;;;;10.93;3.80;;;;;;;19.80;50.94;101784.25;5234277;28;20018;-75
2022/08/12 03:04:49;;;;;;;7.13;3.67;;;;;;;19.69;51.13;101785.16;5233994;28;20223;-75
2022/08/12 03:07:23;;;;;;;8.60;4.17;;;;;;;19.55;51.70;101786.31;5234118;28;20017;-76
2022/08/12 03:10:03;;;;;;;15.13;4.50;;;;;;;19.53;51.59;101780.31;5232897;28;20068;-76
2022/08/12 03:12:37;;;;;;;7.60;3.90;;;;;;;19.47;52.02;101781.66;5233785;28;20073;-75
2022/08/12 03:15:12;;;;;;;10.13;4.22;;;;;;;19.33;52.42;101781.00;5233676;28;20033;-75
2022/08/12 03:17:43;;;;;;;6.97;4.37;;;;;;;19.42;52.16;101784.72;5233845;28;20437;-74
2022/08/12 03:20:17;;;;;;;12.60;3.63;;;;;;;19.40;52.44;101775.16;5248620;28;20076;-75
2022/08/12 03:22:50;;;;;;;9.83;3.40;;;;;;;19.34;52.57;101772.06;5233964;28;20087;-75
2022/08/12 03:25:26;;;;;;;9.07;4.30;;;;;;;19.33;52.57;101781.00;5232358;28;20681;-75
2022/08/12 03:27:57;;;;;;;5.60;3.73;;;;;;;19.33;53.27;101769.53;5232440;28;20026;-76
2022/08/12 03:30:31;;;;;;;5.97;3.80;;;;;;;19.23;53.51;101772.94;5233516;28;20079;-76
2022/08/12 03:33:03;;;;;;;;;;;;;;;19.68;50.94;101770.19;5234190;28;20033;-75
2022/08/12 03:35:38;;;;;;;9.60;4.70;;;;;;;19.03;53.45;101763.06;5232891;28;19913;-75
2022/08/12 03:38:14;;;;;;;6.33;4.20;;;;;;;18.98;53.79;101755.50;5233498;28;20060;-75
2022/08/12 04:01:42;;;;;;;9.70;4.83;;;;;;;18.82;54.70;101766.50;5273754;28;20603;-76
2022/08/12 04:04:15;;;;;;;11.10;5.00;;;;;;;18.84;54.84;101778.69;5273917;28;20072;-76
2022/08/12 04:06:47;;;;;;;6.87;4.27;;;;;;;18.76;55.14;101778.47;5273851;28;20033;-75
2022/08/12 04:09:21;;;;;;;10.43;5.03;;;;;;;18.79;55.02;101778.22;5272488;28;20032;-76
2022/08/12 04:14:43;;;;;;;14.63;5.00;;;;;;;18.62;56.06;101783.06;5274357;28;20028;-76
2022/08/12 04:17:15;;;;;;;9.63;4.50;;;;;;;18.70;55.61;101774.50;5273172;28;20032;-75
2022/08/12 04:19:47;;;;;;;9.10;5.00;;;;;;;18.74;55.64;101788.38;5275011;28;20032;-75
2022/08/12 04:22:21;;;;;;;10.10;4.70;;;;;;;18.62;55.79;101780.41;5273849;28;20598;-76
2022/08/12 04:24:52;;;;;;;11.30;5.45;;;;;;;18.57;56.50;101773.81;5273478;28;20031;-75
2022/08/12 04:27:24;;;;;;;9.87;4.80;;;;;;;18.58;56.24;101780.78;5273898;28;20477;-75
2022/08/12 04:29:57;;;;;;;13.13;5.50;;;;;;;18.61;56.22;101785.84;5272908;28;20040;-75
2022/08/12 04:32:29;;;;;;;10.83;5.37;;;;;;;18.48;56.78;101785.97;5273704;28;20551;-75
2022/08/12 04:35:02;;;;;;;10.53;5.23;;;;;;;18.32;57.43;101781.03;5274097;28;20047;-75
2022/08/12 04:37:33;;;;;;;9.00;4.87;;;;;;;18.39;56.83;101776.94;5273010;28;20032;-75
2022/08/12 04:40:08;;;;;;;11.63;5.10;;;;;;;18.45;57.11;101778.28;5273258;28;20031;-75
2022/08/12 04:42:39;;;;;;;7.23;5.10;;;;;;;18.43;57.11;101783.69;5273459;28;20024;-75
2022/08/12 04:45:10;;;;;;;9.77;5.53;;;;;;;18.43;57.27;101782.84;5273913;28;20029;-75
2022/08/12 04:47:42;;;;;;;7.07;4.87;;;;;;;18.48;56.99;101783.34;5273297;28;20054;-75
2022/08/12 04:50:15;;;;;;;6.83;5.53;;;;;;;18.43;57.35;101777.56;5271827;28;20583;-75
2022/08/12 04:52:48;;;;;;;10.80;5.78;;;;;;;18.45;57.67;101786.22;5273561;28;20032;-75
2022/08/12 04:55:21;;;;;;;6.90;4.87;;;;;;;18.45;57.54;101787.06;5272319;28;20028;-75
2022/08/12 04:57:54;;;;;;;9.30;4.90;;;;;;;18.31;57.89;101779.34;5272387;28;20441;-75
2022/08/12 05:00:26;;;;;;;6.60;4.90;;;;;;;18.51;57.75;101775.13;5274045;28;20025;-75
2022/08/12 05:02:57;;;;;;;8.07;5.03;;;;;;;18.45;58.12;101781.75;5277019;28;20029;-75
2022/08/12 05:05:30;;;;;;;8.20;5.43;;;;;;;18.37;58.62;101777.06;5270944;28;20041;-75
2022/08/12 05:08:02;;;;;;;9.03;6.03;;;;;;;18.40;58.76;101778.63;5273316;28;20059;-75
2022/08/12 05:10:34;;;;;;;14.10;4.83;;;;;;;18.53;57.89;101778.50;5272001;28;20081;-76
2022/08/12 05:13:13;;;;;;;6.57;5.03;;;;;;;18.49;58.20;101782.34;5273190;28;20041;-75
2022/08/12 05:15:45;;;;;;;9.87;5.57;;;;;;;18.47;58.64;101773.66;5272296;28;20039;-75
2022/08/12 05:18:16;;;;;;;8.23;5.17;;;;;;;18.43;58.90;101772.25;5273266;28;20957;-74
2022/08/12 05:20:48;;;;;;;7.07;4.83;;;;;;;18.53;58.42;101767.91;5271342;28;20708;-74
2022/08/12 05:23:21;;;;;;;8.23;5.77;;;;;;;18.47;58.33;101778.97;5272459;28;20038;-77
2022/08/12 05:25:55;;;;;;;10.00;5.63;;;;;;;18.52;58.87;101776.81;5270954;28;20071;-74
2022/08/12 05:28:29;;;;;;;9.43;4.63;;;;;;;18.56;58.68;101780.91;5268965;28;20025;-75
2022/08/12 05:31:00;;;;;;;8.57;5.47;;;;;;;18.64;58.85;101782.13;5270786;28;20464;-78
2022/08/12 05:33:39;;;;;;;8.57;5.20;;;;;;;18.62;59.25;101793.66;5270715;28;20031;-78
2022/08/12 05:36:13;;;;;;;8.20;5.43;;;;;;;18.65;59.07;101787.28;5270463;28;20449;-78
2022/08/12 05:38:55;;;;;;;9.52;5.45;;;;;;;18.73;58.53;101794.63;5269736;28;20047;-76
2022/08/12 05:41:31;;;;;;;10.23;6.07;;;;;;;18.92;58.18;101798.47;5272063;28;20078;-77
2022/08/12 05:44:08;;;;;;;12.30;6.53;;;;;;;18.86;58.49;101798.00;5270975;28;20388;-75
2022/08/12 05:46:40;;;;;;;8.07;6.27;;;;;;;18.70;58.67;101798.38;5271188;28;20017;-75
2022/08/12 05:49:11;;;;;;;8.33;5.67;;;;;;;18.86;58.70;101799.81;5270357;28;20059;-74
2022/08/12 05:51:42;;;;;;;10.27;5.47;;;;;;;18.76;59.36;101791.75;5269969;28;20100;-75
2022/08/12 05:54:15;;;;;;;7.50;5.20;;;;;;;18.81;60.21;101797.53;5268980;28;20029;-75
2022/08/12 05:56:47;;;;;;;6.60;5.53;;;;;;;18.92;59.28;101801.13;5271486;28;20032;-76
2022/08/12 05:59:20;;;;;;;9.13;6.03;;;;;;;18.95;59.24;101807.03;5270531;28;20082;-74
2022/08/12 06:01:57;;;;;;;11.35;5.50;;;;;;;18.96;59.09;101805.22;5269661;28;20028;-75
2022/08/12 06:04:29;;;;;;;14.03;6.20;;;;;;;19.14;58.64;101807.38;5285874;28;20020;-74
2022/08/12 06:07:01;;;;;;;7.50;5.67;;;;;;;19.20;58.06;101812.19;5272480;28;20017;-75
2022/08/12 06:09:32;;;;;;;11.57;6.37;;;;;;;19.20;59.03;101809.53;5270833;28;20440;-74
2022/08/12 06:12:04;;;;;;;8.73;5.30;;;;;;;19.19;59.44;101799.88;5270976;28;20139;-74
2022/08/12 06:14:35;;;;;;;11.40;5.57;;;;;;;19.27;59.36;101799.25;5270029;28;20028;-74
2022/08/12 06:17:07;;;;;;;15.33;5.47;;;;;;;19.22;59.69;101795.16;5271659;28;20032;-74
2022/08/12 06:19:40;;;;;;;8.70;4.77;;;;;;;19.34;59.69;101803.06;5270790;28;20397;-73
2022/08/12 06:22:11;;;;;;;10.83;6.60;;;;;;;19.43;58.80;101798.81;5270458;28;20093;-73
2022/08/12 06:24:43;;;;;;;12.43;5.70;;;;;;;19.47;58.51;101802.91;5270565;28;20029;-74
2022/08/12 06:27:16;;;;;;;9.43;5.33;;;;;;;19.56;57.69;101806.63;5270922;28;20024;-73
2022/08/12 06:29:48;;;;;;;10.00;6.57;;;;;;;19.64;57.83;101803.31;5272019;28;20025;-73
2022/08/12 06:32:19;;;;;;;10.10;5.30;;;;;;;19.65;57.40;101800.53;5269475;28;20065;-74
2022/08/12 06:34:51;;;;;;;10.63;5.70;;;;;;;19.70;57.10;101800.16;5269968;28;20028;-73
2022/08/12 06:37:22;;;;;;;11.43;5.50;;;;;;;19.77;57.15;101803.13;5271252;28;20035;-74
2022/08/12 06:39:54;;;;;;;6.97;5.87;;;;;;;19.83;57.27;101799.94;5270544;28;20439;-74
2022/08/12 06:45:15;;;;;;;10.23;5.43;;;;;;;19.85;57.37;101791.84;5270977;28;20041;-74
2022/08/12 06:47:47;;;;;;;6.73;4.97;;;;;;;19.97;57.30;101797.94;5271203;28;20032;-74
2022/08/12 06:50:19;;;;;;;9.80;5.50;;;;;;;19.99;57.26;101796.81;5271305;28;20027;-74
2022/08/12 06:52:50;;;;;;;12.10;5.80;;;;;;;20.07;56.48;101799.69;5270389;28;20028;-74
2022/08/12 06:55:24;;;;;;;12.53;5.00;;;;;;;20.09;56.39;101780.94;5270187;28;20040;-74
2022/08/12 06:58:00;;;;;;;8.48;4.82;;;;;;;20.14;57.04;101783.22;5271579;28;20032;-74
2022/08/12 07:00:33;;;;;;;13.53;5.40;;;;;;;20.23;56.54;101790.38;5269569;28;20031;-74
2022/08/12 07:03:05;;;;;;;7.83;5.40;;;;;;;20.38;55.58;101788.22;5286215;28;20066;-75
2022/08/12 07:05:36;;;;;;;11.10;4.67;;;;;;;20.47;55.57;101783.94;5270901;28;20033;-74
2022/08/12 07:08:08;;;;;;;19.53;5.77;;;;;;;;;;5271266;28;20032;-74
2022/08/12 07:10:49;;;;;;;14.00;4.60;;;;;;;20.72;55.35;101780.91;5268285;28;20028;-74
2022/08/12 07:13:20;;;;;;;11.10;5.13;;;;;;;20.71;55.50;101774.75;5270914;28;20048;-75
2022/08/12 07:15:54;;;;;;;10.93;5.13;;;;;;;20.91;53.85;101786.25;5270785;28;20048;-74
2022/08/12 07:18:31;;;;;;;8.77;5.15;;;;;;;21.08;52.74;101793.75;5271029;28;20504;-74
2022/08/12 07:21:04;;;;;;;8.70;4.57;;;;;;;21.22;52.69;101781.84;5269789;28;20364;-73
2022/08/12 07:23:38;;;;;;;14.85;4.88;;;;;;;21.38;52.83;101791.94;5270238;28;20025;-74
2022/08/12 07:26:14;;;;;;;17.57;4.50;;;;;;;21.53;50.71;101789.69;5270743;28;20017;-74
2022/08/12 07:28:46;;;;;;;11.80;4.70;;;;;;;21.73;50.58;101801.16;5286539;28;20533;-74
2022/08/12 07:31:18;;;;;;;22.00;4.90;;;;;;;21.84;50.50;101802.84;5270419;28;20029;-74
2022/08/12 07:33:51;;;;;;;12.30;5.07;;;;;;;21.95;50.74;101793.00;5271279;28;20044;-74
2022/08/12 07:36:24;;;;;;;10.70;4.30;;;;;;;22.06;50.82;101797.34;5269192;28;20047;-74
2022/08/12 07:38:55;;;;;;;16.23;4.53;;;;;;;22.20;50.09;101806.69;5266454;28;20112;-73
2022/08/12 07:41:30;;;;;;;10.43;4.50;;;;;;;22.53;49.09;101808.94;5269582;28;20362;-74
2022/08/12 07:44:07;;;;;;;9.05;4.22;;;;;;;22.45;49.11;101794.50;5268839;28;20079;-73
2022/08/12 07:46:42;;;;;;;14.70;4.35;;;;;;;22.82;47.33;101811.47;5272565;28;20028;-74
2022/08/12 07:49:14;;;;;;;8.70;4.10;;;;;;;22.94;47.53;101812.09;5253239;28;20096;-73
2022/08/12 07:51:46;;;;;;;8.25;3.85;;;;;;;23.23;47.63;101806.72;5251995;28;20033;-74
2022/08/12 07:54:18;;;;;;;17.73;4.88;;;;;;;23.43;47.12;101800.22;5261642;28;20021;-75
2022/08/12 07:56:49;;;;;;;14.13;4.00;;;;;;;23.41;45.75;101798.69;5247929;28;20060;-74
2022/08/12 07:59:21;;;;;;;14.07;4.05;;;;;;;23.48;44.67;101801.59;5233230;28;20397;-75
2022/08/12 08:01:53;;;;;;;14.23;4.40;;;;;;;23.39;45.44;101796.16;5234995;28;20108;-75
2022/08/12 08:07:15;;;;;;;15.32;3.92;;;;;;;24.11;45.51;101813.06;5268638;28;20409;-74
2022/08/12 08:09:47;;;;;;;11.95;3.92;;;;;;;24.15;44.93;101813.59;5248346;28;20082;-74
2022/08/12 08:15:09;;;;;;;15.35;3.60;;;;;;;24.25;42.58;101806.31;5253264;28;20490;-77
2022/08/12 08:17:58;;;;;;;10.02;3.30;;;;;;;24.27;42.72;101809.66;5250787;28;20067;-76
2022/08/12 08:20:32;;;;;;;13.10;3.80;;;;;;;24.61;43.82;101820.50;5248041;28;20523;-76
2022/08/12 08:23:13;;;;;;;9.52;3.63;;;;;;;24.87;42.79;101817.72;5251583;28;20040;-75
2022/08/12 08:25:45;;;;;;;12.02;3.47;;;;;;;24.80;42.04;101824.75;5253570;28;20056;-75
2022/08/12 08:28:16;;;;;;;9.52;3.42;;;;;;;24.76;41.73;101807.31;5265435;28;20490;-78
2022/08/12 08:30:48;;;;;;;10.07;3.55;;;;;;;24.98;41.11;101810.41;5249022;28;20036;-77
2022/08/12 08:33:19;;;;;;;13.48;3.53;;;;;;;25.22;40.61;101808.78;5252087;28;20519;-76
2022/08/12 08:35:51;;;;;;;13.45;3.97;;;;;;;25.37;40.53;101815.16;5238339;28;20691;-76
2022/08/12 08:38:23;;;;;;;10.75;2.85;;;;;;;25.37;39.92;101808.94;5258715;28;20025;-77
2022/08/12 08:43:44;;;;;;;6.80;2.90;;;;;;;25.55;40.24;101811.47;5260906;28;20036;-78
2022/08/12 08:46:16;;;;;;;15.13;3.53;;;;;;;25.82;39.00;101817.47;5263282;28;20692;-78
2022/08/12 08:48:47;;;;;;;7.07;3.38;;;;;;;25.84;38.22;101812.78;5269901;28;20541;-77
2022/08/12 08:51:18;;;;;;;7.05;3.25;;;;;;;25.82;38.84;101812.13;5270246;28;20385;-77
2022/08/12 08:53:49;;;;;;;5.88;3.20;;;;;;;25.99;38.04;101817.44;5268707;28;20642;-77
2022/08/12 08:56:21;;;;;;;8.70;3.60;;;;;;;26.17;37.34;101811.00;5269902;28;20115;-78
2022/08/12 08:58:53;;;;;;;9.88;3.38;;;;;;;26.32;37.00;101811.16;5271191;28;20066;-78
2022/08/12 09:01:25;;;;;;;10.73;3.20;;;;;;;26.57;35.86;101819.94;5272703;28;20028;-78
2022/08/12 09:03:56;;;;;;;6.43;3.05;;;;;;;26.75;36.29;101809.94;5272990;28;20035;-77
2022/08/12 09:06:28;;;;;;;8.88;3.05;;;;;;;26.47;36.40;101808.59;5264016;28;20033;-78
2022/08/12 09:08:59;;;;;;;17.95;4.28;;;;;;;26.79;36.82;101814.78;5251329;28;20036;-77
2022/08/12 09:14:21;;;;;;;9.98;4.00;;;;;;;27.05;36.56;101813.63;5250016;28;20049;-76
2022/08/12 09:16:52;;;;;;;20.83;4.20;;;;;;;27.10;35.03;101809.59;5252233;28;20041;-75
2022/08/12 09:19:25;;;;;;;20.77;5.55;;;;;;;26.94;35.16;101811.34;5259223;28;20036;-74
2022/08/12 09:21:57;;;;;;;13.60;3.65;;;;;;;27.15;35.87;101805.34;5250884;28;20524;-73
2022/08/12 09:24:29;;;;;;;12.80;3.63;;;;;;;27.34;35.77;101807.72;5249540;28;20102;-72
2022/08/12 09:27:00;;;;;;;11.05;2.95;;;;;;;27.40;33.25;101796.25;5251216;28;20033;-71
2022/08/12 09:29:32;;;;;;;9.07;2.67;;;;;;;27.47;32.80;101802.56;5241080;28;20371;-72
2022/08/12 09:32:05;;;;;;;8.85;2.72;;;;;;;27.55;32.85;101798.94;5247740;28;20478;-73
2022/08/12 09:34:36;;;;;;;9.53;3.23;;;;;;;27.52;34.46;101802.84;5250969;28;20496;-74
2022/08/12 09:37:07;;;;;;;8.68;2.85;;;;;;;27.67;32.44;101807.41;5257155;28;20037;-74
2022/08/12 09:39:39;;;;;;;10.55;2.53;;;;;;;28.17;31.68;101792.63;5264219;28;20105;-74
2022/08/12 09:47:51;;;;;;;15.55;3.13;;;;;;;28.20;31.98;101781.47;5272784;28;20036;-70
2022/08/12 09:50:23;;;;;;;8.77;3.15;;;;;;;28.13;31.52;101786.75;5250858;28;20060;-71
2022/08/12 09:53:08;;;;;;;23.60;3.70;;;;;;;28.55;32.29;101792.50;5249201;28;20044;-72
2022/08/12 09:55:47;;;;;;;7.88;2.67;;;;;;;28.67;30.66;101790.13;5228828;28;20120;-71
2022/08/12 09:58:27;;;;;;;10.70;2.95;;;;;;;28.72;30.31;101774.22;5225031;28;20571;-72
2022/08/12 10:01:03;;;;;;;9.07;2.70;;;;;;;29.02;30.55;101777.84;5226786;28;20063;-72
2022/08/12 10:03:36;;;;;;;13.85;2.60;;;;;;;29.41;30.49;101773.78;5231369;28;20044;-71
2022/08/12 10:06:09;;;;;;;13.00;2.88;;;;;;;29.43;30.45;101776.31;5238115;28;20037;-72
2022/08/12 10:08:40;;;;;;;9.30;3.00;;;;;;;29.18;30.02;101766.78;5235726;28;20035;-72
2022/08/12 10:14:02;;;;;;;9.05;2.65;;;;;;;29.57;30.14;101761.03;5227510;28;20068;-72
2022/08/12 10:16:34;;;;;;;7.45;2.75;;;;;;;29.58;29.34;101765.41;5237818;28;20029;-72
2022/08/12 10:19:05;;;;;;;7.85;2.85;;;;;;;29.66;29.21;101769.84;5221213;28;20033;-71
2022/08/12 10:21:40;;;;;;;7.78;2.97;;;;;;;29.80;29.51;101759.94;5226957;28;20634;-72
2022/08/12 10:24:21;;;;;;;6.47;2.60;;;;;;;29.87;28.42;101766.22;5222764;28;20143;-72
2022/08/12 10:29:46;;;;;;;10.63;2.75;;;;;;;29.83;29.14;101748.78;5234435;28;20041;-72
2022/08/12 10:32:22;;;;;;;11.98;2.50;;;;;;;29.88;27.32;101750.88;5233917;28;20020;-72
2022/08/12 10:34:54;;;;;;;6.35;2.67;;;;;;;30.29;28.27;101741.06;5257208;28;20037;-71
2022/08/12 10:37:25;;;;;;;9.70;2.08;;;;;;;30.23;27.30;101748.13;5249952;28;20396;-71
2022/08/12 10:39:56;;;;;;;7.85;2.22;;;;;;;30.58;27.60;101749.88;5250229;28;20134;-71
2022/08/12 10:45:30;;;;;;;11.48;2.20;;;;;;;30.66;27.16;101751.56;5236471;28;20040;-69
2022/08/12 10:48:01;;;;;;;;;;;;;;;30.66;27.79;101743.44;5249805;28;20029;-70
2022/08/12 10:50:34;;;;;;;11.85;2.47;;;;;;;31.03;27.22;101727.69;5263212;28;20127;-70
2022/08/12 10:53:08;;;;;;;9.18;2.60;;;;;;;30.88;26.00;101744.13;5252151;28;20560;-71
2022/08/12 10:55:39;;;;;;;8.23;2.60;;;;;;;30.93;26.00;101729.16;5262003;28;20032;-71
2022/08/12 10:58:10;;;;;;;4.60;1.95;;;;;;;31.29;26.49;101725.19;5271815;28;20024;-72
2022/08/12 11:00:41;;;;;;;7.95;2.10;;;;;;;31.74;25.76;101726.34;5266345;28;20134;-71
2022/08/12 11:03:13;;;;;;;7.22;2.30;;;;;;;31.89;25.57;101723.34;5270186;28;20388;-72
2022/08/12 11:05:44;;;;;;;6.90;2.10;;;;;;;31.91;24.88;101710.44;5259849;28;20760;-74
2022/08/12 11:08:16;;;;;;;9.43;2.33;;;;;;;32.27;25.30;101707.38;5254378;28;20067;-72
2022/08/12 11:10:47;;;;;;;9.77;2.28;;;;;;;32.23;24.75;101715.09;5269449;28;20031;-72
2022/08/12 11:13:19;;;;;;;14.95;2.95;;;;;;;32.46;24.58;101709.13;5258640;28;20037;-71
2022/08/12 11:15:51;;;;;;;4.63;1.98;;;;;;;32.60;24.01;101703.63;5270848;28;20037;-72
2022/08/12 11:18:23;;;;;;;13.02;2.53;;;;;;;32.51;24.48;101694.06;5266239;28;20121;-71
2022/08/12 11:20:54;;;;;;;4.35;2.28;;;;;;;32.71;24.65;101699.38;5265323;28;20112;-72
2022/08/12 11:23:25;;;;;;;5.53;1.90;;;;;;;33.03;24.08;101695.75;5260502;28;20033;-73
2022/08/12 11:25:57;;;;;;;8.15;2.33;;;;;;;32.97;23.60;101681.22;5255333;28;20039;-73
2022/08/12 11:28:28;;;;;;;12.43;2.42;;;;;;;33.15;23.76;101693.16;5274222;28;20021;-73
2022/08/12 11:30:59;;;;;;;13.77;2.83;;;;;;;32.98;23.19;101699.13;5274215;28;20099;-72
2022/08/12 11:33:31;;;;;;;5.80;2.70;;;;;;;32.95;22.92;101692.28;5272423;28;20024;-71
2022/08/12 11:36:04;;;;;;;8.85;3.15;;;;;;;33.11;23.34;101700.09;5258524;28;20028;-71
2022/08/12 11:38:36;;;;;;;11.38;2.75;;;;;;;32.89;23.63;101690.44;5247574;28;20047;-71
2022/08/12 11:41:07;;;;;;;10.05;2.75;;;;;;;32.78;24.13;101686.56;5253622;28;20025;-71
2022/08/12 11:43:38;;;;;;;7.20;2.63;;;;;;;33.43;23.99;101679.06;5251709;28;20069;-71
2022/08/12 11:46:10;;;;;;;10.18;2.50;;;;;;;33.16;24.13;101675.84;5254782;28;20123;-72
2022/08/12 11:48:41;;;;;;;5.32;2.40;;;;;;;32.92;23.15;101681.06;5264661;28;20028;-70
2022/08/12 11:51:12;;;;;;;9.65;2.75;;;;;;;32.95;23.72;101683.31;5264928;28;20020;-71
2022/08/12 11:53:43;;;;;;;4.95;2.15;;;;;;;33.02;23.10;101667.81;5273079;28;20036;-71
2022/08/12 11:56:15;;;;;;;7.10;2.53;;;;;;;33.28;24.16;101671.31;5274964;28;20024;-72
2022/08/12 11:58:47;;;;;;;7.03;2.25;;;;;;;33.58;22.55;101674.31;5260423;28;20021;-71
2022/08/12 12:01:19;;;;;;;8.45;2.20;;;;;;;33.38;22.57;101653.66;5265654;28;20025;-71
2022/08/12 12:03:50;;;;;;;8.88;2.45;;;;;;;33.29;23.63;101670.25;5253786;28;20025;-71
2022/08/12 12:06:21;;;;;;;7.22;1.80;;;;;;;33.20;23.39;101655.31;5251204;28;20067;-72
2022/08/12 12:08:53;;;;;;;5.18;1.98;;;;;;;33.42;21.91;101654.88;5237094;28;20025;-70
2022/08/12 12:11:24;;;;;;;8.48;2.10;;;;;;;33.34;22.21;101652.47;5235987;28;20090;-71
2022/08/12 12:13:56;;;;;;;5.55;2.10;;;;;;;33.49;22.67;101658.34;5255157;28;20028;-72
2022/08/12 12:16:27;;;;;;;12.02;2.00;;;;;;;33.30;22.31;101646.66;5263677;28;20036;-71
2022/08/12 12:18:59;;;;;;;10.82;2.13;;;;;;;33.46;22.13;101653.38;5247343;28;20043;-72
2022/08/12 12:21:30;;;;;;;5.65;2.20;;;;;;;33.43;22.48;101653.81;5246986;28;20033;-70
2022/08/12 12:24:01;;;;;;;11.02;2.88;;;;;;;33.30;22.75;101644.75;5241336;28;20032;-71
2022/08/12 12:26:33;;;;;;;6.47;2.47;;;;;;;33.40;22.65;101646.13;5232877;28;20026;-70
2022/08/12 12:29:04;;;;;;;3.65;2.28;;;;;;;33.43;22.01;101643.78;5248582;28;20037;-71
2022/08/12 12:31:35;;;;;;;22.77;2.35;;;;;;;33.41;21.82;101634.22;5252969;28;20568;-78
2022/08/12 12:34:07;;;;;;;5.55;1.92;;;;;;;33.51;21.84;101644.53;5252481;28;20508;-70
2022/08/12 12:36:38;;;;;;;6.50;1.90;;;;;;;33.43;22.02;101646.50;5253558;28;20035;-71
2022/08/12 12:39:09;;;;;;;4.50;2.30;;;;;;;33.50;22.45;101638.28;5252261;28;20028;-71
2022/08/12 12:41:41;;;;;;;9.98;2.35;;;;;;;33.26;22.21;101623.75;5247308;28;20028;-74
2022/08/12 12:44:12;;;;;;;7.45;2.05;;;;;;;33.69;22.56;101638.25;5251550;28;20029;-72
2022/08/12 12:46:43;;;;;;;5.32;2.47;;;;;;;33.90;22.27;101628.78;5260107;28;20013;-79
2022/08/12 12:49:14;;;;;;;9.30;3.05;;;;;;;33.82;22.83;101631.00;5272726;28;20032;-81
2022/08/12 12:51:46;;;;;;;16.45;2.75;;;;;;;33.47;22.39;101619.72;5274949;28;20043;-81
2022/08/12 12:54:17;;;;;;;7.78;2.17;;;;;;;33.84;22.41;101623.47;5271469;28;20032;-71
2022/08/12 12:56:51;;;;;;;5.57;2.50;;;;;;;33.71;22.18;101605.44;5273340;28;20618;-79
2022/08/12 12:59:23;;;;;;;8.52;2.38;;;;;;;33.79;22.85;101613.28;5273497;28;20021;-78
2022/08/12 13:01:54;;;;;;;12.70;2.50;;;;;;;33.62;22.15;101615.78;5272025;28;20028;-69
2022/08/12 13:04:33;;;;;;;5.68;2.15;;;;;;;33.61;22.71;101601.38;5273491;28;20496;-67
2022/08/12 13:07:05;;;;;;;7.57;2.65;;;;;;;33.87;22.90;101614.84;5272509;28;20032;-74
2022/08/12 13:09:36;;;;;;;11.48;2.40;;;;;;;33.77;22.02;101608.09;5264554;28;20028;-73
2022/08/12 13:12:07;;;;;;;4.57;2.83;;;;;;;33.71;21.96;101614.44;5270912;28;20460;-72
2022/08/12 13:14:39;;;;;;;5.80;2.40;;;;;;;33.60;22.55;101607.03;5271752;28;20107;-73
2022/08/12 13:17:11;;;;;;;5.18;2.80;;;;;;;33.74;22.25;101600.38;5272133;28;20034;-72
2022/08/12 13:19:42;;;;;;;9.23;2.90;;;;;;;33.62;21.94;101603.03;5271577;28;20058;-69
2022/08/12 13:22:17;;;;;;;6.45;2.83;;;;;;;34.02;22.12;101600.84;5271624;28;20262;-71
2022/08/12 13:24:51;;;;;;;14.32;2.40;;;;;;;33.44;22.12;101603.91;5273569;28;20035;-70
2022/08/12 13:27:28;;;;;;;8.30;2.88;;;;;;;33.44;23.31;101595.75;5272429;28;20028;-71
2022/08/12 13:29:59;;;;;;;7.57;3.30;;;;;;;33.62;23.13;101599.50;5271750;28;20345;-71
2022/08/12 13:32:31;;;;;;;9.27;3.05;;;;;;;33.55;23.09;101586.81;5272363;28;20032;-71
2022/08/12 13:35:03;;;;;;;8.32;2.60;;;;;;;33.78;23.39;101596.16;5272785;28;20470;-71
2022/08/12 13:37:35;;;;;;;9.45;3.08;;;;;;;33.83;22.90;101600.09;5271336;28;20449;-71
2022/08/12 13:40:09;;;;;;;11.50;2.92;;;;;;;33.61;22.52;101586.97;5272762;28;20107;-72
2022/08/12 13:42:40;;;;;;;7.00;2.80;;;;;;;33.86;22.24;101586.88;5271469;28;20111;-71
2022/08/12 13:45:12;;;;;;;8.02;2.63;;;;;;;33.87;21.98;101584.97;5272636;28;20107;-72